createdAt,value
2022-08-26T00:01:29.672Z,20.25
2022-08-26T00:03:56.970Z,20.26
2022-08-26T00:06:25.404Z,20.26
2022-08-26T00:08:52.198Z,20.24
2022-08-26T00:11:26.888Z,20.21
2022-08-26T00:13:57.342Z,20.20
2022-08-26T00:16:26.540Z,20.24
2022-08-26T00:18:54.382Z,20.19
2022-08-26T00:21:21.564Z,20.14
2022-08-26T00:23:48.326Z,20.15
2022-08-26T00:26:15.470Z,20.23
2022-08-26T00:28:42.381Z,20.20
2022-08-26T00:31:09.482Z,20.23
2022-08-26T00:33:39.287Z,20.15
2022-08-26T00:36:07.345Z,20.09
2022-08-26T00:38:37.859Z,20.11
2022-08-26T00:41:05.760Z,20.07
2022-08-26T00:43:46.176Z,19.97
2022-08-26T00:46:23.689Z,19.99
2022-08-26T00:48:53.883Z,20.14
2022-08-26T00:51:24.804Z,20.14
2022-08-26T00:54:05.672Z,20.15
2022-08-26T00:56:47.024Z,20.09
2022-08-26T00:59:17.952Z,20.03
2022-08-26T01:01:45.908Z,20.05
2022-08-26T01:04:17.787Z,19.89
2022-08-26T01:06:46.721Z,19.78
2022-08-26T01:09:14.181Z,19.81
2022-08-26T01:11:41.831Z,19.81
2022-08-26T01:14:09.536Z,19.78
2022-08-26T01:16:37.129Z,19.78
2022-08-26T01:19:16.259Z,19.76
2022-08-26T01:21:57.776Z,19.77
2022-08-26T01:24:28.353Z,19.76
2022-08-26T01:27:01.767Z,19.75
2022-08-26T01:29:30.054Z,19.74
2022-08-26T01:31:57.916Z,19.73
2022-08-26T01:34:28.075Z,19.80
2022-08-26T01:37:01.924Z,19.80
2022-08-26T01:39:29.237Z,19.87
2022-08-26T01:41:58.004Z,19.86
2022-08-26T01:44:36.297Z,19.84
2022-08-26T01:47:05.000Z,19.87
2022-08-26T01:49:35.771Z,19.88
2022-08-26T01:52:04.537Z,19.95
2022-08-26T01:54:32.465Z,19.94
2022-08-26T01:56:59.726Z,19.92
2022-08-26T01:59:26.759Z,19.89
2022-08-26T02:01:53.698Z,19.89
2022-08-26T02:04:34.434Z,19.83
2022-08-26T02:07:09.218Z,19.84
2022-08-26T02:09:41.401Z,19.75
2022-08-26T02:12:12.417Z,19.77
2022-08-26T02:14:44.517Z,19.72
2022-08-26T02:17:11.577Z,19.68
2022-08-26T02:19:42.006Z,19.69
2022-08-26T02:22:14.370Z,19.76
2022-08-26T02:24:53.600Z,19.70
2022-08-26T02:27:32.117Z,19.76
2022-08-26T02:30:10.250Z,19.64
2022-08-26T02:32:38.162Z,19.63
2022-08-26T02:35:08.380Z,19.57
2022-08-26T02:37:36.192Z,19.59
2022-08-26T02:40:05.168Z,19.67
2022-08-26T02:42:32.340Z,19.75
2022-08-26T02:44:59.498Z,19.75
2022-08-26T02:47:28.989Z,19.74
2022-08-26T02:49:55.925Z,19.67
2022-08-26T02:52:22.867Z,19.69
2022-08-26T02:54:49.735Z,19.69
2022-08-26T02:57:17.370Z,19.68
2022-08-26T02:59:44.230Z,19.73
2022-08-26T03:02:11.363Z,19.70
2022-08-26T03:04:39.507Z,19.68
2022-08-26T03:07:07.203Z,19.68
2022-08-26T03:09:35.021Z,19.60
2022-08-26T03:12:02.147Z,19.60
2022-08-26T03:14:29.829Z,19.72
2022-08-26T03:16:56.787Z,19.74
2022-08-26T03:19:25.143Z,19.73
2022-08-26T03:21:52.987Z,19.69
2022-08-26T03:24:26.292Z,19.70
2022-08-26T03:26:53.261Z,19.76
2022-08-26T03:29:39.863Z,19.76
2022-08-26T03:32:06.895Z,19.78
2022-08-26T03:34:34.314Z,19.78
2022-08-26T03:37:01.517Z,19.82
2022-08-26T03:39:28.815Z,19.71
2022-08-26T03:41:58.965Z,19.77
2022-08-26T03:44:26.522Z,19.83
2022-08-26T03:46:54.631Z,19.83
2022-08-26T03:49:22.115Z,19.82
2022-08-26T03:51:48.941Z,19.75
2022-08-26T03:54:16.924Z,19.74
2022-08-26T03:56:43.753Z,19.72
2022-08-26T03:59:13.410Z,19.77
2022-08-26T04:01:40.250Z,19.70
2022-08-26T04:04:07.034Z,19.76
2022-08-26T04:06:37.225Z,19.73
2022-08-26T04:09:09.763Z,19.76
2022-08-26T04:11:39.448Z,19.79
2022-08-26T04:14:17.635Z,19.88
2022-08-26T04:16:47.386Z,19.85
2022-08-26T04:19:15.532Z,19.86
2022-08-26T04:21:43.520Z,19.95
2022-08-26T04:24:13.207Z,19.94
2022-08-26T04:26:42.756Z,19.92
2022-08-26T04:29:18.241Z,19.88
2022-08-26T04:31:45.647Z,19.94
2022-08-26T04:34:14.108Z,20.01
2022-08-26T04:36:42.005Z,19.95
2022-08-26T04:39:12.152Z,20.01
2022-08-26T04:41:39.671Z,20.04
2022-08-26T04:44:07.799Z,20.14
2022-08-26T04:46:35.461Z,20.12
2022-08-26T04:49:08.843Z,20.12
2022-08-26T04:51:36.556Z,20.15
2022-08-26T04:54:04.425Z,20.31
2022-08-26T04:56:34.153Z,20.35
2022-08-26T04:59:03.100Z,20.44
2022-08-26T05:01:31.639Z,20.47
2022-08-26T05:03:59.021Z,20.49
2022-08-26T05:06:26.271Z,20.59
2022-08-26T05:08:54.200Z,20.65
2022-08-26T05:11:22.058Z,20.73
2022-08-26T05:13:49.249Z,20.76
2022-08-26T05:16:16.985Z,20.81
2022-08-26T05:18:45.754Z,20.92
2022-08-26T05:21:25.638Z,21.04
2022-08-26T05:23:56.751Z,21.05
2022-08-26T05:26:24.515Z,21.07
2022-08-26T05:28:54.677Z,21.08
2022-08-26T05:31:25.298Z,21.13
2022-08-26T05:33:52.647Z,21.24
2022-08-26T05:36:22.021Z,21.32
2022-08-26T05:38:49.759Z,21.33
2022-08-26T05:41:34.361Z,21.27
2022-08-26T05:44:06.795Z,21.37
2022-08-26T05:46:34.704Z,21.48
2022-08-26T05:49:02.629Z,21.58
2022-08-26T05:51:31.015Z,21.74
2022-08-26T05:53:58.817Z,21.91
2022-08-26T05:56:27.714Z,22.01
2022-08-26T05:58:56.347Z,22.09
2022-08-26T06:01:26.891Z,22.22
2022-08-26T06:04:01.331Z,22.34
2022-08-26T06:06:32.303Z,22.38
2022-08-26T06:09:01.255Z,22.44
2022-08-26T06:11:30.602Z,22.48
2022-08-26T06:14:03.580Z,22.56
2022-08-26T06:16:38.284Z,22.67
2022-08-26T06:19:10.768Z,22.82
2022-08-26T06:21:41.316Z,22.90
2022-08-26T06:24:30.432Z,22.96
2022-08-26T06:27:01.229Z,22.98
2022-08-26T06:29:30.082Z,22.98
2022-08-26T06:31:58.039Z,23.06
2022-08-26T06:34:29.679Z,23.10
2022-08-26T06:36:58.681Z,23.25
2022-08-26T06:39:25.629Z,23.33
2022-08-26T06:41:52.479Z,23.44
2022-08-26T06:44:19.330Z,23.44
2022-08-26T06:46:50.280Z,23.50
2022-08-26T06:49:17.724Z,23.58
2022-08-26T06:51:44.498Z,23.68
2022-08-26T06:54:11.506Z,23.79
2022-08-26T06:56:41.770Z,23.85
2022-08-26T06:59:11.190Z,23.99
2022-08-26T07:01:44.614Z,24.03
2022-08-26T07:04:15.708Z,24.05
2022-08-26T07:06:48.980Z,24.13
2022-08-26T07:09:16.966Z,24.23
2022-08-26T07:11:44.663Z,24.33
2022-08-26T07:14:12.218Z,24.49
2022-08-26T07:16:39.634Z,24.58
2022-08-26T07:19:10.627Z,24.69
2022-08-26T07:21:42.016Z,24.82
2022-08-26T07:24:11.095Z,24.97
2022-08-26T07:26:38.836Z,25.05
2022-08-26T07:29:12.609Z,25.14
2022-08-26T07:31:42.750Z,25.21
2022-08-26T07:34:10.811Z,25.32
2022-08-26T07:36:38.205Z,25.36
2022-08-26T07:39:06.280Z,25.50
2022-08-26T07:41:33.312Z,25.58
2022-08-26T07:44:00.900Z,25.64
2022-08-26T07:46:30.307Z,25.65
2022-08-26T07:48:57.722Z,25.69
2022-08-26T07:51:25.656Z,25.73
2022-08-26T07:53:53.177Z,25.69
2022-08-26T07:56:23.269Z,25.73
2022-08-26T07:58:54.110Z,25.80
2022-08-26T08:01:23.805Z,25.85
2022-08-26T08:03:53.340Z,25.88
2022-08-26T08:06:22.536Z,25.70
2022-08-26T08:08:55.242Z,25.65
2022-08-26T08:11:23.736Z,25.61
2022-08-26T08:13:56.146Z,25.69
2022-08-26T08:16:28.559Z,25.85
2022-08-26T08:18:59.371Z,26.00
2022-08-26T08:21:27.859Z,26.14
2022-08-26T08:23:57.340Z,26.24
2022-08-26T08:26:25.707Z,26.33
2022-08-26T08:28:57.149Z,26.42
2022-08-26T08:31:55.737Z,26.48
2022-08-26T08:34:18.230Z,26.50
2022-08-26T08:36:46.375Z,26.55
2022-08-26T08:39:13.863Z,26.63
2022-08-26T08:41:50.128Z,26.69
2022-08-26T08:44:31.512Z,26.73
2022-08-26T08:47:11.405Z,26.77
2022-08-26T08:49:38.155Z,26.84
2022-08-26T08:52:14.832Z,26.90
2022-08-26T08:54:41.692Z,26.94
2022-08-26T08:57:20.729Z,27.00
2022-08-26T09:00:00.477Z,27.06
2022-08-26T09:02:34.627Z,27.14
2022-08-26T09:05:17.380Z,27.17
2022-08-26T09:07:50.372Z,27.16
2022-08-26T09:10:40.465Z,27.19
2022-08-26T09:13:16.347Z,27.24
2022-08-26T09:15:56.676Z,27.22
2022-08-26T09:18:48.774Z,27.31
2022-08-26T09:21:18.345Z,27.39
2022-08-26T09:23:49.471Z,27.42
2022-08-26T09:26:45.164Z,27.41
2022-08-26T09:29:24.036Z,27.42
2022-08-26T09:31:52.029Z,27.44
2022-08-26T09:34:19.104Z,27.48
2022-08-26T09:36:54.391Z,27.44
2022-08-26T09:39:23.875Z,27.52
2022-08-26T09:42:09.619Z,27.55
2022-08-26T09:44:56.567Z,27.61
2022-08-26T09:47:31.566Z,27.68
2022-08-26T09:50:29.999Z,27.74
2022-08-26T09:53:28.800Z,27.82
2022-08-26T09:56:17.734Z,27.82
2022-08-26T09:58:47.374Z,27.86
2022-08-26T10:01:22.964Z,27.91
2022-08-26T10:03:51.435Z,27.92
2022-08-26T10:06:18.159Z,27.94
2022-08-26T10:08:53.088Z,28.00
2022-08-26T10:11:47.195Z,28.04
2022-08-26T10:14:18.536Z,28.08
2022-08-26T10:16:59.560Z,28.14
2022-08-26T10:19:55.864Z,28.21
2022-08-26T10:22:26.204Z,28.22
2022-08-26T10:24:59.613Z,28.23
2022-08-26T10:27:49.724Z,28.14
2022-08-26T10:30:24.007Z,28.15
2022-08-26T10:32:56.807Z,28.09
2022-08-26T10:35:32.878Z,28.15
2022-08-26T10:38:11.373Z,28.33
2022-08-26T10:40:53.270Z,28.42
2022-08-26T10:43:28.302Z,28.48
2022-08-26T10:46:02.206Z,28.57
2022-08-26T10:48:56.419Z,28.66
2022-08-26T10:51:32.135Z,28.69
2022-08-26T10:54:15.595Z,28.67
2022-08-26T10:56:58.595Z,28.77
2022-08-26T10:59:34.670Z,28.88
2022-08-26T11:02:11.551Z,28.93
2022-08-26T11:04:48.191Z,29.13
2022-08-26T11:07:36.881Z,29.32
2022-08-26T11:10:21.532Z,29.45
2022-08-26T11:13:03.795Z,29.53
2022-08-26T11:15:31.958Z,29.41
2022-08-26T11:18:03.601Z,29.42
2022-08-26T11:20:31.087Z,29.34
2022-08-26T11:23:20.581Z,29.49
2022-08-26T11:25:57.110Z,29.65
2022-08-26T11:28:44.092Z,29.80
2022-08-26T11:31:39.973Z,30.00
2022-08-26T11:34:13.722Z,30.20
2022-08-26T11:36:54.544Z,30.31
2022-08-26T11:39:47.848Z,30.42
2022-08-26T11:42:23.702Z,30.54
2022-08-26T11:44:57.911Z,30.58
2022-08-26T11:47:29.339Z,30.54
2022-08-26T11:50:26.714Z,30.51
2022-08-26T11:53:04.352Z,30.49
2022-08-26T11:55:36.202Z,30.51
2022-08-26T11:58:05.769Z,30.52
2022-08-26T12:00:47.636Z,30.39
2022-08-26T12:03:21.473Z,30.37
2022-08-26T12:05:52.406Z,30.30
2022-08-26T12:08:21.689Z,30.20
2022-08-26T12:10:51.419Z,30.16
2022-08-26T12:13:22.833Z,30.12
2022-08-26T12:15:58.029Z,30.06
2022-08-26T12:18:32.076Z,29.97
2022-08-26T12:21:01.550Z,29.97
2022-08-26T12:23:40.140Z,29.96
2022-08-26T12:26:22.549Z,29.95
2022-08-26T12:29:00.904Z,29.93
2022-08-26T12:31:33.763Z,29.88
2022-08-26T12:34:04.109Z,29.86
2022-08-26T12:36:32.250Z,29.88
2022-08-26T12:39:09.433Z,29.88
2022-08-26T12:41:42.566Z,29.84
2022-08-26T12:44:29.511Z,29.86
2022-08-26T12:47:11.712Z,29.89
2022-08-26T12:49:41.348Z,29.88
2022-08-26T12:52:29.867Z,29.91
2022-08-26T12:55:02.933Z,29.88
2022-08-26T12:57:33.172Z,29.86
2022-08-26T13:00:28.372Z,29.86
2022-08-26T13:02:55.586Z,29.82
2022-08-26T13:05:26.024Z,29.84
2022-08-26T13:08:10.581Z,29.81
2022-08-26T13:10:40.310Z,29.80
2022-08-26T13:13:07.182Z,29.87
2022-08-26T13:15:34.020Z,29.87
2022-08-26T13:18:03.341Z,29.94
2022-08-26T13:20:30.625Z,29.91
2022-08-26T13:22:59.079Z,29.86
2022-08-26T13:25:26.438Z,29.85
2022-08-26T13:27:53.276Z,29.83
2022-08-26T13:30:20.182Z,29.87
2022-08-26T13:32:46.976Z,29.93
2022-08-26T13:35:13.765Z,29.90
2022-08-26T13:37:40.478Z,29.91
2022-08-26T13:40:09.591Z,29.87
2022-08-26T13:42:36.394Z,29.85
2022-08-26T13:45:05.009Z,30.11
2022-08-26T13:47:31.858Z,30.31
2022-08-26T13:49:58.575Z,30.38
2022-08-26T13:52:30.367Z,30.22
2022-08-26T13:54:58.249Z,30.64
2022-08-26T13:57:27.915Z,30.56
2022-08-26T13:59:56.513Z,30.45
2022-08-26T14:02:23.343Z,30.62
2022-08-26T14:04:50.151Z,31.76
2022-08-26T14:07:17.090Z,31.32
2022-08-26T14:09:43.852Z,30.74
2022-08-26T14:12:10.524Z,30.66
2022-08-26T14:14:37.336Z,30.50
2022-08-26T14:17:04.034Z,30.38
2022-08-26T14:19:30.740Z,30.26
2022-08-26T14:21:57.771Z,30.13
2022-08-26T14:24:24.442Z,30.12
2022-08-26T14:26:51.103Z,30.06
2022-08-26T14:29:17.866Z,30.04
2022-08-26T14:31:44.766Z,29.98
2022-08-26T14:34:14.004Z,29.97
2022-08-26T14:36:40.713Z,29.98
2022-08-26T14:39:09.792Z,30.04
2022-08-26T14:41:54.692Z,30.07
2022-08-26T14:44:25.996Z,30.02
2022-08-26T14:46:53.552Z,29.99
2022-08-26T14:49:23.037Z,29.93
2022-08-26T14:51:50.272Z,29.90
2022-08-26T14:54:18.295Z,29.87
2022-08-26T14:56:52.440Z,29.89
2022-08-26T14:59:23.192Z,29.81
2022-08-26T15:01:50.077Z,29.86
2022-08-26T15:04:17.232Z,29.87
2022-08-26T15:06:44.087Z,29.73
2022-08-26T15:09:11.402Z,29.67
2022-08-26T15:11:38.252Z,29.60
2022-08-26T15:14:06.320Z,29.51
2022-08-26T15:16:34.330Z,29.45
2022-08-26T15:19:04.492Z,29.40
2022-08-26T15:21:33.080Z,29.43
2022-08-26T15:24:00.986Z,29.44
2022-08-26T15:26:29.828Z,29.42
2022-08-26T15:28:56.975Z,29.40
2022-08-26T15:31:31.123Z,29.46
2022-08-26T15:34:00.219Z,29.46
2022-08-26T15:36:28.887Z,29.41
2022-08-26T15:38:56.764Z,29.36
2022-08-26T15:41:24.453Z,29.33
2022-08-26T15:43:51.656Z,29.35
2022-08-26T15:46:19.306Z,29.34
2022-08-26T15:48:46.364Z,29.36
2022-08-26T15:51:25.987Z,29.34
2022-08-26T15:53:56.339Z,29.28
2022-08-26T15:56:27.760Z,29.25
2022-08-26T15:58:56.141Z,29.23
2022-08-26T16:01:27.748Z,29.24
2022-08-26T16:03:55.398Z,29.17
2022-08-26T16:06:27.969Z,29.15
2022-08-26T16:08:56.144Z,29.12
2022-08-26T16:11:23.721Z,29.08
2022-08-26T16:13:50.650Z,29.06
2022-08-26T16:16:17.744Z,29.00
2022-08-26T16:18:45.395Z,28.95
2022-08-26T16:21:17.295Z,28.92
2022-08-26T16:23:45.269Z,28.91
2022-08-26T16:26:19.634Z,28.89
2022-08-26T16:28:47.427Z,28.88
2022-08-26T16:31:15.242Z,28.84
2022-08-26T16:33:42.037Z,28.82
2022-08-26T16:36:09.656Z,28.75
2022-08-26T16:38:37.836Z,28.71
2022-08-26T16:41:05.329Z,28.63
2022-08-26T16:43:32.098Z,28.62
2022-08-26T16:45:58.898Z,28.54
2022-08-26T16:48:26.849Z,28.49
2022-08-26T16:50:55.514Z,28.41
2022-08-26T16:53:23.259Z,28.33
2022-08-26T16:55:50.645Z,28.29
2022-08-26T16:58:18.078Z,28.23
2022-08-26T17:00:45.369Z,28.19
2022-08-26T17:03:12.556Z,28.12
2022-08-26T17:05:40.331Z,28.04
2022-08-26T17:08:07.170Z,27.96
2022-08-26T17:10:34.667Z,27.88
2022-08-26T17:13:01.381Z,27.82
2022-08-26T17:15:28.425Z,27.75
2022-08-26T17:17:56.191Z,27.69
2022-08-26T17:20:24.355Z,27.65
2022-08-26T17:22:53.459Z,27.61
2022-08-26T17:25:22.122Z,27.56
2022-08-26T17:27:48.951Z,27.52
2022-08-26T17:30:17.186Z,27.51
2022-08-26T17:32:44.163Z,27.48
2022-08-26T17:35:12.877Z,27.40
2022-08-26T17:37:40.895Z,27.29
2022-08-26T17:40:11.265Z,27.21
2022-08-26T17:42:39.372Z,27.18
2022-08-26T17:45:07.474Z,27.10
2022-08-26T17:47:34.937Z,26.97
2022-08-26T17:50:02.055Z,26.90
2022-08-26T17:52:29.456Z,26.81
2022-08-26T17:54:57.298Z,26.71
2022-08-26T17:57:25.208Z,26.66
2022-08-26T17:59:52.699Z,26.52
2022-08-26T18:02:21.210Z,26.42
2022-08-26T18:04:48.037Z,26.29
2022-08-26T18:07:15.762Z,26.34
2022-08-26T18:09:42.796Z,26.28
2022-08-26T18:12:09.816Z,26.16
2022-08-26T18:14:36.815Z,26.02
2022-08-26T18:17:04.085Z,25.89
2022-08-26T18:19:31.454Z,25.87
2022-08-26T18:21:58.733Z,25.75
2022-08-26T18:24:25.658Z,25.57
2022-08-26T18:26:52.377Z,25.36
2022-08-26T18:29:20.103Z,25.36
2022-08-26T18:31:48.486Z,25.29
2022-08-26T18:34:16.903Z,25.23
2022-08-26T18:36:44.078Z,25.18
2022-08-26T18:39:12.178Z,25.07
2022-08-26T18:41:46.031Z,24.99
2022-08-26T18:44:15.092Z,24.89
2022-08-26T18:46:42.493Z,24.92
2022-08-26T18:49:12.424Z,24.79
2022-08-26T18:51:39.567Z,24.71
2022-08-26T18:54:07.474Z,24.60
2022-08-26T18:56:36.377Z,24.46
2022-08-26T18:59:05.416Z,24.51
2022-08-26T19:01:32.691Z,24.63
2022-08-26T19:04:01.454Z,24.56
2022-08-26T19:06:31.573Z,24.59
2022-08-26T19:08:59.071Z,24.50
2022-08-26T19:11:32.109Z,24.36
2022-08-26T19:14:01.434Z,24.22
2022-08-26T19:16:29.050Z,24.19
2022-08-26T19:18:56.600Z,24.10
2022-08-26T19:21:23.388Z,24.08
2022-08-26T19:23:51.307Z,24.07
2022-08-26T19:26:19.346Z,23.91
2022-08-26T19:28:48.219Z,24.05
2022-08-26T19:31:15.582Z,24.01
2022-08-26T19:33:45.482Z,24.00
2022-08-26T19:36:22.022Z,24.04
2022-08-26T19:38:50.100Z,24.01
2022-08-26T19:41:37.911Z,24.00
2022-08-26T19:44:33.752Z,23.95
2022-08-26T19:47:00.892Z,23.89
2022-08-26T19:49:27.608Z,23.93
2022-08-26T19:51:54.565Z,23.86
2022-08-26T19:54:24.108Z,23.77
2022-08-26T19:56:50.665Z,23.67
2022-08-26T19:59:17.768Z,23.60
2022-08-26T20:01:44.926Z,23.58
2022-08-26T20:04:12.468Z,23.47
2022-08-26T20:06:39.327Z,23.36
2022-08-26T20:09:06.269Z,23.23
2022-08-26T20:11:33.024Z,23.21
2022-08-26T20:13:59.869Z,23.12
2022-08-26T20:16:26.653Z,23.08
2022-08-26T20:19:11.862Z,22.99
2022-08-26T20:21:40.446Z,22.97
2022-08-26T20:24:13.251Z,22.90
2022-08-26T20:26:43.208Z,22.95
2022-08-26T20:29:12.896Z,22.97
2022-08-26T20:31:40.097Z,23.06
2022-08-26T20:34:07.252Z,23.03
2022-08-26T20:36:34.531Z,23.02
2022-08-26T20:39:01.493Z,22.93
2022-08-26T20:41:28.627Z,22.93
2022-08-26T20:43:56.408Z,22.87
2022-08-26T20:46:25.185Z,22.90
2022-08-26T20:48:53.683Z,22.77
2022-08-26T20:51:23.524Z,22.83
2022-08-26T20:53:51.145Z,22.69
2022-08-26T20:56:23.563Z,22.63
2022-08-26T20:58:53.324Z,22.61
2022-08-26T21:01:25.961Z,22.63
2022-08-26T21:03:55.183Z,22.63
2022-08-26T21:06:21.998Z,22.64
2022-08-26T21:08:50.341Z,22.58
2022-08-26T21:11:19.784Z,22.61
2022-08-26T21:16:36.623Z,22.55
2022-08-26T21:19:04.391Z,22.56
2022-08-26T21:21:31.486Z,22.45
2022-08-26T21:23:58.814Z,22.44
2022-08-26T21:26:26.391Z,22.39
2022-08-26T21:28:53.842Z,22.46
2022-08-26T21:31:24.487Z,22.52
2022-08-26T21:33:51.866Z,22.46
2022-08-26T21:36:19.360Z,22.34
2022-08-26T21:38:46.136Z,22.35
2022-08-26T21:41:19.445Z,22.30
2022-08-26T21:43:47.882Z,22.28
2022-08-26T21:46:21.877Z,22.23
2022-08-26T21:48:56.158Z,22.17
2022-08-26T21:51:25.428Z,22.12
2022-08-26T21:53:52.950Z,22.15
2022-08-26T21:56:21.207Z,22.18
2022-08-26T21:58:48.094Z,22.22
2022-08-26T22:01:19.736Z,22.23
2022-08-26T22:03:47.906Z,22.19
2022-08-26T22:06:21.245Z,22.08
2022-08-26T22:08:47.996Z,22.07
2022-08-26T22:11:15.986Z,22.10
2022-08-26T22:13:43.503Z,22.09
2022-08-26T22:16:11.440Z,22.01
2022-08-26T22:18:38.953Z,21.95
2022-08-26T22:21:08.674Z,22.00
2022-08-26T22:23:36.807Z,21.97
2022-08-26T22:26:05.589Z,21.84
2022-08-26T22:28:32.648Z,21.81
2022-08-26T22:30:59.450Z,21.93
2022-08-26T22:33:26.301Z,21.78
2022-08-26T22:35:53.730Z,21.84
2022-08-26T22:38:21.154Z,21.70
2022-08-26T22:40:50.875Z,21.75
2022-08-26T22:43:19.327Z,21.80
2022-08-26T22:45:48.404Z,21.86
2022-08-26T22:48:18.236Z,21.78
2022-08-26T22:50:46.622Z,21.71
2022-08-26T22:53:14.431Z,21.73
2022-08-26T22:55:41.343Z,21.74
2022-08-26T22:58:08.134Z,21.76
2022-08-26T23:00:35.510Z,21.73
2022-08-26T23:03:04.249Z,21.65
2022-08-26T23:05:31.860Z,21.58
2022-08-26T23:07:59.022Z,21.51
2022-08-26T23:10:25.862Z,21.46
2022-08-26T23:12:53.136Z,21.56
2022-08-26T23:15:21.222Z,21.39
2022-08-26T23:17:52.338Z,21.32
2022-08-26T23:20:27.075Z,21.34
2022-08-26T23:22:55.015Z,21.34
2022-08-26T23:25:22.657Z,21.31
2022-08-26T23:27:51.732Z,21.30
2022-08-26T23:30:24.121Z,21.28
2022-08-26T23:32:50.809Z,21.06
2022-08-26T23:35:20.512Z,20.96
2022-08-26T23:37:54.030Z,20.98
2022-08-26T23:40:32.278Z,21.08
2022-08-26T23:43:01.507Z,21.08
2022-08-26T23:45:28.320Z,21.11
2022-08-26T23:47:55.434Z,21.10
2022-08-26T23:50:44.702Z,21.05
2022-08-26T23:53:19.161Z,21.06
2022-08-26T23:55:48.854Z,21.04
2022-08-26T23:58:17.376Z,21.09
